createdAt,value
2018-09-15T00:00:42.863Z,99.99
2018-09-15T00:01:42.847Z,99.99
2018-09-15T00:02:42.831Z,99.99
2018-09-15T00:03:42.831Z,99.99
2018-09-15T00:04:42.812Z,99.99
2018-09-15T00:05:42.784Z,99.99
2018-09-15T00:06:42.767Z,99.99
2018-09-15T00:07:42.748Z,99.99
2018-09-15T00:08:42.752Z,99.99
2018-09-15T00:09:42.734Z,99.99
2018-09-15T00:10:42.701Z,99.99
2018-09-15T00:11:42.685Z,99.99
2018-09-15T00:12:42.665Z,99.99
2018-09-15T00:13:42.667Z,99.99
2018-09-15T00:14:42.632Z,99.99
2018-09-15T00:15:42.618Z,99.99
2018-09-15T00:16:42.603Z,99.99
2018-09-15T00:17:42.588Z,99.99
2018-09-15T00:18:42.586Z,99.99
2018-09-15T00:19:42.551Z,99.99
2018-09-15T00:20:42.561Z,99.99
2018-09-15T00:21:42.524Z,99.99
2018-09-15T00:22:42.504Z,99.99
2018-09-15T00:23:42.495Z,99.99
2018-09-15T00:24:42.468Z,99.99
2018-09-15T00:25:42.454Z,99.99
2018-09-15T00:26:42.451Z,99.99
2018-09-15T00:27:42.420Z,99.99
2018-09-15T00:28:42.405Z,99.99
2018-09-15T00:29:42.387Z,99.99
2018-09-15T00:30:42.384Z,99.99
2018-09-15T00:31:42.355Z,99.99
2018-09-15T00:32:42.336Z,99.99
2018-09-15T00:33:42.325Z,99.99
2018-09-15T00:34:42.307Z,99.99
2018-09-15T00:35:42.291Z,99.99
2018-09-15T00:36:42.291Z,99.99
2018-09-15T00:37:42.258Z,99.99
2018-09-15T00:38:42.238Z,99.99
2018-09-15T00:39:42.229Z,99.99
2018-09-15T00:40:42.223Z,99.99
2018-09-15T00:41:42.243Z,99.99
2018-09-15T00:42:42.170Z,99.99
2018-09-15T00:43:42.156Z,99.99
2018-09-15T00:44:42.138Z,99.99
2018-09-15T00:45:42.141Z,99.99
2018-09-15T00:46:42.126Z,99.99
2018-09-15T00:47:42.094Z,99.99
2018-09-15T00:48:42.078Z,99.99
2018-09-15T00:49:42.060Z,99.76
2018-09-15T00:50:42.044Z,98.47
2018-09-15T00:51:42.037Z,98.66
2018-09-15T00:52:42.028Z,98.85
2018-09-15T00:53:41.990Z,98.85
2018-09-15T00:54:41.979Z,98.61
2018-09-15T00:55:41.957Z,98.71
2018-09-15T00:56:41.957Z,99.28
2018-09-15T00:57:41.926Z,99.09
2018-09-15T00:58:41.903Z,99.14
2018-09-15T00:59:41.891Z,99.19
2018-09-15T01:00:41.878Z,98.23
2018-09-15T01:01:41.866Z,97.99
2018-09-15T01:02:41.854Z,98.52
2018-09-15T01:03:41.825Z,99.52
2018-09-15T01:04:41.809Z,98.33
2018-09-15T01:05:41.796Z,98.61
2018-09-15T01:06:41.774Z,98.42
2018-09-15T01:07:41.755Z,99.19
2018-09-15T01:08:41.757Z,98.71
2018-09-15T01:09:41.738Z,98.52
2018-09-15T01:10:41.703Z,98.61
2018-09-15T01:11:41.688Z,98.61
2018-09-15T01:12:41.673Z,98.61
2018-09-15T01:13:41.672Z,98.42
2018-09-15T01:14:41.654Z,98.71
2018-09-15T01:15:41.622Z,99.28
2018-09-15T01:16:41.609Z,99.09
2018-09-15T01:17:41.590Z,99.19
2018-09-15T01:18:41.568Z,99.28
2018-09-15T01:19:41.572Z,99.28
2018-09-15T01:20:41.538Z,98.99
2018-09-15T01:21:41.520Z,98.99
2018-09-15T01:22:41.504Z,99.19
2018-09-15T01:23:41.486Z,99.28
2018-09-15T01:24:41.492Z,99.38
2018-09-15T01:25:41.456Z,99.19
2018-09-15T01:26:41.436Z,98.80
2018-09-15T01:27:41.417Z,98.42
2018-09-15T01:28:41.405Z,99.19
2018-09-15T01:29:41.402Z,99.19
2018-09-15T01:30:41.388Z,99.19
2018-09-15T01:31:41.354Z,99.19
2018-09-15T01:32:41.341Z,99.85
2018-09-15T01:33:41.320Z,99.85
2018-09-15T01:34:41.304Z,99.76
2018-09-15T01:35:41.299Z,99.99
2018-09-15T01:36:41.290Z,99.99
2018-09-15T01:37:41.257Z,99.99
2018-09-15T01:38:41.239Z,99.95
2018-09-15T01:39:41.222Z,99.99
2018-09-15T01:40:41.203Z,99.85
2018-09-15T01:41:41.187Z,99.99
2018-09-15T01:42:41.188Z,99.99
2018-09-15T01:43:41.152Z,99.99
2018-09-15T01:44:41.138Z,99.99
2018-09-15T01:45:41.137Z,99.99
2018-09-15T01:46:41.098Z,99.99
2018-09-15T01:47:41.101Z,99.99
2018-09-15T01:48:41.071Z,99.99
2018-09-15T01:49:41.068Z,99.99
2018-09-15T01:50:41.036Z,99.99
2018-09-15T01:51:41.018Z,99.99
2018-09-15T01:52:40.999Z,99.99
2018-09-15T01:53:40.982Z,99.99
2018-09-15T01:54:40.983Z,99.99
2018-09-15T01:55:41.005Z,99.99
2018-09-15T01:56:40.932Z,99.99
2018-09-15T01:57:40.971Z,99.99
2018-09-15T01:58:40.894Z,99.99
2018-09-15T01:59:40.893Z,99.99
2018-09-15T02:00:40.865Z,99.99
2018-09-15T02:01:40.846Z,99.99
2018-09-15T02:02:40.831Z,99.99
2018-09-15T02:03:40.826Z,99.99
2018-09-15T02:04:40.814Z,99.99
2018-09-15T02:05:40.779Z,99.99
2018-09-15T02:06:40.763Z,99.99
2018-09-15T02:07:40.746Z,99.99
2018-09-15T02:08:40.735Z,99.99
2018-09-15T02:09:40.711Z,99.99
2018-09-15T02:10:40.708Z,99.99
2018-09-15T02:11:40.670Z,99.99
2018-09-15T02:12:40.661Z,99.99
2018-09-15T02:13:40.636Z,99.99
2018-09-15T02:14:40.623Z,99.99
2018-09-15T02:15:40.604Z,99.99
2018-09-15T02:16:40.604Z,99.99
2018-09-15T02:17:40.587Z,99.99
2018-09-15T02:18:40.557Z,99.99
2018-09-15T02:19:40.538Z,99.99
2018-09-15T02:20:40.521Z,99.99
2018-09-15T02:21:40.503Z,99.99
2018-09-15T02:22:40.606Z,99.99
2018-09-15T02:23:40.466Z,99.99
2018-09-15T02:24:40.453Z,99.99
2018-09-15T02:25:40.437Z,99.99
2018-09-15T02:26:40.419Z,99.99
2018-09-15T02:27:40.421Z,99.99
2018-09-15T02:28:40.405Z,99.99
2018-09-15T02:29:40.367Z,99.99
2018-09-15T02:30:40.352Z,99.99
2018-09-15T02:31:40.333Z,99.99
2018-09-15T02:32:40.316Z,99.99
2018-09-15T02:33:40.300Z,99.99
2018-09-15T02:34:40.293Z,99.99
2018-09-15T02:35:40.265Z,99.99
2018-09-15T02:36:40.243Z,99.99
2018-09-15T02:37:40.227Z,99.99
2018-09-15T02:38:40.211Z,99.99
2018-09-15T02:39:40.210Z,99.99
2018-09-15T02:40:40.182Z,99.99
2018-09-15T02:41:40.159Z,99.99
2018-09-15T02:42:40.143Z,99.99
2018-09-15T02:43:40.123Z,99.99
2018-09-15T02:45:01.125Z,99.99
2018-09-15T02:45:40.089Z,99.99
2018-09-15T02:46:40.071Z,99.99
2018-09-15T02:47:40.058Z,99.99
2018-09-15T02:48:40.039Z,99.99
2018-09-15T02:49:40.039Z,99.99
2018-09-15T02:50:40.007Z,99.99
2018-09-15T02:51:39.989Z,99.99
2018-09-15T02:52:39.977Z,99.99
2018-09-15T02:53:39.955Z,99.99
2018-09-15T02:54:39.987Z,99.99
2018-09-15T02:55:39.919Z,99.99
2018-09-15T02:56:39.901Z,99.99
2018-09-15T02:57:39.890Z,99.99
2018-09-15T02:58:39.869Z,99.99
2018-09-15T02:59:39.867Z,99.99
2018-09-15T03:00:39.835Z,99.99
2018-09-15T03:01:39.825Z,99.99
2018-09-15T03:02:39.806Z,99.99
2018-09-15T03:03:39.787Z,99.99
2018-09-15T03:04:39.783Z,99.99
2018-09-15T03:05:39.767Z,99.99
2018-09-15T03:06:39.735Z,99.99
2018-09-15T03:07:39.716Z,99.99
2018-09-15T03:08:39.699Z,99.99
2018-09-15T03:09:39.687Z,99.99
2018-09-15T03:10:39.703Z,99.99
2018-09-15T03:11:39.650Z,99.99
2018-09-15T03:12:39.635Z,99.99
2018-09-15T03:13:39.617Z,99.99
2018-09-15T03:14:39.599Z,99.99
2018-09-15T03:15:39.580Z,99.99
2018-09-15T03:16:39.580Z,99.99
2018-09-15T03:17:39.544Z,99.99
2018-09-15T03:18:39.528Z,99.99
2018-09-15T03:19:39.513Z,99.99
2018-09-15T03:20:39.499Z,99.99
2018-09-15T03:21:39.504Z,99.99
2018-09-15T03:22:39.457Z,99.99
2018-09-15T03:23:39.441Z,99.99
2018-09-15T03:24:39.425Z,99.99
2018-09-15T03:25:39.412Z,99.99
2018-09-15T03:26:39.407Z,99.99
2018-09-15T03:27:39.374Z,99.99
2018-09-15T03:28:39.358Z,99.99
2018-09-15T03:29:39.338Z,99.99
2018-09-15T03:30:39.320Z,99.99
2018-09-15T03:31:39.323Z,99.99
2018-09-15T03:32:39.287Z,99.99
2018-09-15T03:33:39.270Z,99.99
2018-09-15T03:34:39.257Z,99.99
2018-09-15T03:35:39.238Z,99.99
2018-09-15T03:36:39.219Z,99.99
2018-09-15T03:37:39.227Z,99.99
2018-09-15T03:38:39.184Z,99.99
2018-09-15T03:39:39.171Z,99.99
2018-09-15T03:40:39.149Z,99.99
2018-09-15T03:41:39.200Z,99.99
2018-09-15T03:42:39.115Z,99.99
2018-09-15T03:43:39.121Z,99.99
2018-09-15T03:44:39.081Z,99.99
2018-09-15T03:45:39.068Z,99.99
2018-09-15T03:46:39.045Z,99.99
2018-09-15T03:47:39.035Z,99.99
2018-09-15T03:48:39.008Z,99.99
2018-09-15T03:49:40.388Z,99.99
2018-09-15T03:50:38.970Z,99.99
2018-09-15T03:51:38.970Z,99.99
2018-09-15T03:52:38.951Z,99.99
2018-09-15T03:53:38.921Z,99.99
2018-09-15T03:54:38.926Z,99.99
2018-09-15T03:55:38.899Z,99.99
2018-09-15T03:56:38.875Z,99.99
2018-09-15T03:57:38.854Z,99.99
2018-09-15T03:58:38.854Z,99.99
2018-09-15T03:59:38.823Z,99.99
2018-09-15T04:00:38.829Z,99.99
2018-09-15T04:01:38.800Z,99.99
2018-09-15T04:02:38.775Z,99.99
2018-09-15T04:03:38.768Z,99.99
2018-09-15T04:04:38.736Z,99.99
2018-09-15T04:05:38.742Z,99.99
2018-09-15T04:06:38.704Z,99.99
2018-09-15T04:07:38.685Z,99.99
2018-09-15T04:08:38.664Z,99.99
2018-09-15T04:09:38.653Z,99.99
2018-09-15T04:10:38.650Z,99.99
2018-09-15T04:11:38.634Z,99.99
2018-09-15T04:12:38.604Z,99.99
2018-09-15T04:13:38.579Z,99.99
2018-09-15T04:14:38.570Z,99.99
2018-09-15T04:15:38.545Z,99.99
2018-09-15T04:16:38.532Z,99.99
2018-09-15T04:17:38.528Z,99.99
2018-09-15T04:18:38.501Z,99.99
2018-09-15T04:19:38.500Z,99.99
2018-09-15T04:20:38.458Z,99.99
2018-09-15T04:21:38.445Z,99.99
2018-09-15T04:22:38.442Z,99.99
2018-09-15T04:23:38.410Z,99.99
2018-09-15T04:24:38.411Z,99.99
2018-09-15T04:25:38.381Z,99.99
2018-09-15T04:26:38.371Z,99.99
2018-09-15T04:27:38.339Z,99.99
2018-09-15T04:28:38.386Z,99.99
2018-09-15T04:29:38.323Z,99.99
2018-09-15T04:30:38.291Z,99.99
2018-09-15T04:31:38.277Z,99.99
2018-09-15T04:32:38.255Z,99.99
2018-09-15T04:33:38.240Z,99.99
2018-09-15T04:34:38.238Z,99.99
2018-09-15T04:35:38.205Z,99.99
2018-09-15T04:36:38.192Z,99.99
2018-09-15T04:37:38.168Z,99.99
2018-09-15T04:38:38.150Z,99.99
2018-09-15T04:39:38.162Z,99.99
2018-09-15T04:40:38.126Z,99.99
2018-09-15T04:41:38.133Z,99.99
2018-09-15T04:42:38.085Z,99.99
2018-09-15T04:43:38.069Z,99.99
2018-09-15T04:44:38.049Z,99.99
2018-09-15T04:45:38.053Z,99.99
2018-09-15T04:46:38.015Z,99.99
2018-09-15T04:47:37.998Z,99.99
2018-09-15T04:48:37.982Z,99.99
2018-09-15T04:49:37.965Z,99.99
2018-09-15T04:50:37.966Z,99.99
2018-09-15T04:51:37.931Z,99.99
2018-09-15T04:52:37.965Z,99.99
2018-09-15T04:53:37.895Z,99.99
2018-09-15T04:54:37.880Z,99.99
2018-09-15T04:55:37.877Z,99.99
2018-09-15T04:56:37.841Z,99.99
2018-09-15T04:57:37.826Z,99.99
2018-09-15T04:58:37.820Z,99.99
2018-09-15T04:59:37.794Z,99.99
2018-09-15T05:00:37.795Z,99.99
2018-09-15T05:01:37.773Z,99.99
2018-09-15T05:02:37.738Z,99.99
2018-09-15T05:03:37.717Z,99.99
2018-09-15T05:04:37.704Z,99.99
2018-09-15T05:05:37.685Z,99.99
2018-09-15T05:06:37.733Z,99.99
2018-09-15T05:07:37.655Z,99.99
2018-09-15T05:08:37.634Z,99.99
2018-09-15T05:09:37.623Z,99.99
2018-09-15T05:10:37.642Z,99.99
2018-09-15T05:11:37.595Z,99.99
2018-09-15T05:12:37.819Z,99.99
2018-09-15T05:13:37.550Z,99.99
2018-09-15T05:14:37.527Z,99.99
2018-09-15T05:15:37.517Z,99.99
2018-09-15T05:16:37.490Z,99.99
2018-09-15T05:17:37.499Z,99.99
2018-09-15T05:18:37.459Z,99.99
2018-09-15T05:19:37.443Z,99.99
2018-09-15T05:20:37.424Z,99.99
2018-09-15T05:21:37.415Z,99.99
2018-09-15T05:22:37.389Z,99.99
2018-09-15T05:23:37.394Z,99.99
2018-09-15T05:24:37.360Z,99.99
2018-09-15T05:25:37.337Z,99.99
2018-09-15T05:26:37.322Z,99.99
2018-09-15T05:27:37.321Z,99.99
2018-09-15T05:28:37.291Z,99.99
2018-09-15T05:29:37.275Z,99.99
2018-09-15T05:30:37.255Z,99.99
2018-09-15T05:31:37.251Z,99.99
2018-09-15T05:32:37.229Z,99.99
2018-09-15T05:33:37.211Z,99.99
2018-09-15T05:34:37.195Z,99.99
2018-09-15T05:35:37.188Z,99.99
2018-09-15T05:36:37.140Z,99.99
2018-09-15T05:37:37.204Z,99.99
2018-09-15T05:38:37.131Z,99.99
2018-09-15T05:39:37.101Z,99.99
2018-09-15T05:40:37.072Z,99.99
2018-09-15T05:41:37.057Z,99.99
2018-09-15T05:42:37.037Z,99.99
2018-09-15T05:43:37.030Z,99.99
2018-09-15T05:44:37.027Z,99.99
2018-09-15T05:45:36.987Z,99.99
2018-09-15T05:46:36.966Z,99.99
2018-09-15T05:47:36.954Z,99.99
2018-09-15T05:48:36.946Z,99.99
2018-09-15T05:49:36.995Z,99.99
2018-09-15T05:50:36.906Z,99.99
2018-09-15T05:51:36.883Z,99.99
2018-09-15T05:52:36.871Z,99.99
2018-09-15T05:53:36.841Z,99.99
2018-09-15T05:54:36.827Z,99.99
2018-09-15T05:55:36.838Z,99.99
2018-09-15T05:56:36.790Z,99.99
2018-09-15T05:57:36.773Z,99.99
2018-09-15T05:58:36.754Z,99.99
2018-09-15T05:59:36.761Z,99.99
2018-09-15T06:00:36.769Z,99.99
2018-09-15T06:01:36.776Z,99.99
2018-09-15T06:02:36.680Z,99.99
2018-09-15T06:03:36.664Z,99.99
2018-09-15T06:04:36.654Z,99.99
2018-09-15T06:05:36.643Z,99.99
2018-09-15T06:06:36.628Z,99.99
2018-09-15T06:07:36.604Z,99.99
2018-09-15T06:08:36.582Z,99.99
2018-09-15T06:09:36.582Z,99.99
2018-09-15T06:10:36.545Z,99.99
2018-09-15T06:11:36.528Z,99.99
2018-09-15T06:12:36.508Z,99.99
2018-09-15T06:13:36.538Z,99.99
2018-09-15T06:14:36.481Z,99.99
2018-09-15T06:15:36.733Z,99.99
2018-09-15T06:16:36.460Z,99.99
2018-09-15T06:17:36.435Z,99.99
2018-09-15T06:18:36.405Z,99.99
2018-09-15T06:19:36.387Z,99.99
2018-09-15T06:20:36.370Z,99.99
2018-09-15T06:21:36.355Z,99.99
2018-09-15T06:22:36.374Z,99.99
2018-09-15T06:23:36.319Z,99.99
2018-09-15T06:24:36.303Z,99.99
2018-09-15T06:25:36.284Z,99.99
2018-09-15T06:26:36.264Z,99.99
2018-09-15T06:27:36.267Z,99.99
2018-09-15T06:28:36.232Z,99.99
2018-09-15T06:29:36.217Z,99.99
2018-09-15T06:30:36.191Z,99.99
2018-09-15T06:31:36.176Z,99.99
2018-09-15T06:32:36.182Z,99.99
2018-09-15T06:33:36.140Z,99.99
2018-09-15T06:34:36.127Z,99.99
2018-09-15T06:35:36.104Z,99.99
2018-09-15T06:36:36.095Z,99.99
2018-09-15T06:37:36.092Z,99.99
2018-09-15T06:38:36.064Z,99.99
2018-09-15T06:39:36.039Z,99.99
2018-09-15T06:40:36.026Z,99.99
2018-09-15T06:41:36.003Z,99.99
2018-09-15T06:42:35.993Z,99.99
2018-09-15T06:43:35.988Z,99.99
2018-09-15T06:44:35.952Z,99.99
2018-09-15T06:45:35.948Z,99.99
2018-09-15T06:46:35.936Z,99.99
2018-09-15T06:47:35.902Z,99.99
2018-09-15T06:48:35.895Z,99.99
2018-09-15T06:49:35.867Z,99.99
2018-09-15T06:50:35.847Z,99.99
2018-09-15T06:51:35.828Z,99.99
2018-09-15T06:52:35.813Z,99.99
2018-09-15T06:53:35.869Z,99.99
2018-09-15T06:54:35.780Z,99.99
2018-09-15T06:55:35.773Z,99.99
2018-09-15T06:56:35.760Z,99.99
2018-09-15T06:57:35.738Z,99.99
2018-09-15T06:58:35.707Z,99.99
2018-09-15T06:59:35.717Z,99.99
2018-09-15T07:00:35.674Z,99.99
2018-09-15T07:01:35.662Z,99.99
2018-09-15T07:02:35.661Z,99.99
2018-09-15T07:03:35.626Z,99.99
2018-09-15T07:04:35.626Z,99.99
2018-09-15T07:05:35.591Z,99.99
2018-09-15T07:06:35.575Z,99.99
2018-09-15T07:07:35.562Z,99.99
2018-09-15T07:08:56.548Z,99.99
2018-09-15T07:09:35.521Z,99.99
2018-09-15T07:10:35.501Z,99.99
2018-09-15T07:11:35.482Z,99.99
2018-09-15T07:12:35.474Z,99.99
2018-09-15T07:13:35.455Z,99.99
2018-09-15T07:14:35.456Z,99.99
2018-09-15T07:15:35.422Z,99.99
2018-09-15T07:16:35.407Z,99.99
2018-09-15T07:17:35.390Z,99.99
2018-09-15T07:18:35.368Z,99.99
2018-09-15T07:19:35.367Z,99.99
2018-09-15T07:20:35.339Z,99.99
2018-09-15T07:21:36.190Z,99.99
2018-09-15T07:22:35.298Z,99.99
2018-09-15T07:23:35.298Z,99.99
2018-09-15T07:24:35.297Z,99.99
2018-09-15T07:25:35.254Z,99.99
2018-09-15T07:26:35.230Z,99.99
2018-09-15T07:27:35.225Z,99.99
2018-09-15T07:28:35.204Z,99.99
2018-09-15T07:29:35.182Z,99.99
2018-09-15T07:30:35.179Z,99.99
2018-09-15T07:31:35.264Z,99.99
2018-09-15T07:32:35.130Z,99.99
2018-09-15T07:33:35.120Z,99.99
2018-09-15T07:34:35.106Z,99.99
2018-09-15T07:35:35.103Z,99.99
2018-09-15T07:36:35.081Z,99.99
2018-09-15T07:37:35.058Z,99.99
2018-09-15T07:38:35.035Z,99.99
2018-09-15T07:39:35.019Z,99.99
2018-09-15T07:40:35.009Z,99.99
2018-09-15T07:41:35.004Z,99.99
2018-09-15T07:42:34.966Z,99.99
2018-09-15T07:43:34.956Z,99.99
2018-09-15T07:44:34.970Z,99.99
2018-09-15T07:45:34.921Z,99.99
2018-09-15T07:46:35.247Z,99.99
2018-09-15T07:47:34.895Z,99.99
2018-09-15T07:48:34.895Z,99.99
2018-09-15T07:49:34.851Z,99.99
2018-09-15T07:50:34.842Z,99.99
2018-09-15T07:51:34.879Z,99.99
2018-09-15T07:52:34.820Z,99.99
2018-09-15T07:53:34.784Z,99.99
2018-09-15T07:54:34.777Z,99.99
2018-09-15T07:55:34.752Z,98.57
2018-09-15T07:56:34.745Z,98.28
2018-09-15T07:57:34.873Z,98.96
2018-09-15T07:58:34.714Z,99.63
2018-09-15T07:59:34.694Z,98.10
2018-09-15T08:00:34.674Z,99.15
2018-09-15T08:01:34.661Z,98.77
2018-09-15T08:02:34.661Z,99.99
2018-09-15T08:03:34.631Z,99.99
2018-09-15T08:04:34.617Z,99.99
2018-09-15T08:05:34.595Z,99.99
2018-09-15T08:06:34.585Z,99.99
2018-09-15T08:07:34.569Z,99.99
2018-09-15T08:08:34.566Z,99.99
2018-09-15T08:09:34.534Z,99.99
2018-09-15T08:10:34.514Z,99.99
2018-09-15T08:11:34.496Z,99.99
2018-09-15T08:12:34.478Z,99.99
2018-09-15T08:13:34.485Z,98.86
2018-09-15T08:14:34.462Z,98.19
2018-09-15T08:15:34.449Z,97.71
2018-09-15T08:16:34.423Z,99.15
2018-09-15T08:17:34.408Z,99.99
2018-09-15T08:18:34.390Z,99.99
2018-09-15T08:19:34.388Z,99.99
2018-09-15T08:20:34.427Z,99.99
2018-09-15T08:21:34.341Z,99.99
2018-09-15T08:22:34.327Z,99.99
2018-09-15T08:23:34.327Z,99.99
2018-09-15T08:24:34.299Z,99.99
2018-09-15T08:25:34.280Z,99.99
2018-09-15T08:26:34.362Z,99.99
2018-09-15T08:27:34.279Z,99.99
2018-09-15T08:28:34.234Z,99.63
2018-09-15T08:29:34.223Z,99.39
2018-09-15T08:30:34.224Z,98.53
2018-09-15T08:31:34.189Z,96.51
2018-09-15T08:32:34.175Z,95.60
2018-09-15T08:33:34.158Z,95.31
2018-09-15T08:34:34.140Z,94.74
2018-09-15T08:35:34.146Z,95.21
2018-09-15T08:36:34.117Z,94.93
2018-09-15T08:37:34.124Z,95.07
2018-09-15T08:38:34.084Z,95.07
2018-09-15T08:39:34.069Z,95.75
2018-09-15T08:40:34.055Z,96.03
2018-09-15T08:41:34.056Z,97.47
2018-09-15T08:42:34.027Z,97.86
2018-09-15T08:43:34.008Z,97.38
2018-09-15T08:44:34.009Z,97.56
2018-09-15T08:45:33.982Z,95.98
2018-09-15T08:46:33.963Z,95.07
2018-09-15T08:47:33.963Z,93.15
2018-09-15T08:48:33.931Z,92.81
2018-09-15T08:49:33.925Z,88.39
2018-09-15T08:50:33.903Z,85.54
2018-09-15T08:51:33.884Z,83.66
2018-09-15T08:52:33.893Z,84.25
2018-09-15T08:53:33.860Z,86.80
2018-09-15T08:54:33.847Z,86.18
2018-09-15T08:55:33.836Z,86.52
2018-09-15T08:56:33.824Z,86.36
2018-09-15T08:57:33.820Z,84.00
2018-09-15T08:58:33.787Z,81.77
2018-09-15T08:59:33.784Z,79.85
2018-09-15T09:00:33.764Z,78.34
2018-09-15T09:01:33.752Z,77.61
2018-09-15T09:02:33.752Z,76.26
2018-09-15T09:03:33.729Z,75.59
2018-09-15T09:04:33.704Z,76.07
2018-09-15T09:05:33.692Z,73.67
2018-09-15T09:06:33.684Z,72.77
2018-09-15T09:07:33.678Z,73.57
2018-09-15T09:08:33.657Z,75.10
2018-09-15T09:09:33.634Z,75.05
2018-09-15T09:10:33.629Z,74.66
2018-09-15T09:11:33.631Z,74.24
2018-09-15T09:12:33.593Z,74.79
2018-09-15T09:13:33.586Z,74.24
2018-09-15T09:14:33.567Z,76.90
2018-09-15T09:15:33.560Z,78.65
2018-09-15T09:16:33.541Z,81.17
2018-09-15T09:17:33.558Z,84.98
2018-09-15T09:18:33.512Z,87.24
2018-09-15T09:19:33.527Z,88.30
2018-09-15T09:20:33.490Z,89.02
2018-09-15T09:21:33.481Z,90.27
2018-09-15T09:22:33.474Z,91.33
2018-09-15T09:23:33.457Z,92.77
2018-09-15T09:24:33.474Z,92.48
2018-09-15T09:25:33.446Z,92.91
2018-09-15T09:26:33.522Z,93.77
2018-09-15T09:27:33.421Z,92.91
2018-09-15T09:28:33.409Z,86.02
2018-09-15T09:29:33.390Z,80.85
2018-09-15T09:30:33.362Z,77.75
2018-09-15T09:31:33.354Z,75.18
2018-09-15T09:32:33.336Z,73.00
2018-09-15T09:33:33.340Z,70.75
2018-09-15T09:34:33.376Z,68.95
2018-09-15T09:35:33.333Z,67.43
2018-09-15T09:36:33.290Z,66.17
2018-09-15T09:37:33.279Z,65.72
2018-09-15T09:38:33.277Z,65.24
2018-09-15T09:39:33.257Z,65.20
2018-09-15T09:40:33.264Z,65.17
2018-09-15T09:41:33.302Z,63.95
2018-09-15T09:42:33.226Z,63.40
2018-09-15T09:43:33.213Z,64.98
2018-09-15T09:44:33.209Z,67.43
2018-09-15T09:45:33.219Z,66.98
2018-09-15T09:46:33.187Z,66.88
2018-09-15T09:47:33.183Z,66.17
2018-09-15T09:48:33.171Z,64.30
2018-09-15T09:49:33.166Z,63.98
2018-09-15T09:50:33.178Z,65.88
2018-09-15T09:51:33.146Z,67.59
2018-09-15T09:52:33.136Z,68.68
2018-09-15T09:53:33.129Z,68.08
2018-09-15T09:54:33.130Z,66.17
2018-09-15T09:55:33.130Z,65.11
2018-09-15T09:56:33.107Z,64.11
2018-09-15T09:57:33.104Z,64.31
2018-09-15T09:58:33.080Z,64.72
2018-09-15T09:59:33.076Z,62.85
2018-09-15T10:00:33.085Z,61.65
2018-09-15T10:01:33.077Z,60.30
2018-09-15T10:02:33.073Z,58.19
2018-09-15T10:03:33.050Z,57.70
2018-09-15T10:04:33.041Z,57.62
2018-09-15T10:05:33.037Z,60.82
2018-09-15T10:06:33.028Z,63.82
2018-09-15T10:07:33.040Z,63.85
2018-09-15T10:08:33.006Z,62.70
2018-09-15T10:09:33.009Z,63.95
2018-09-15T10:10:33.023Z,63.98
2018-09-15T10:11:33.014Z,63.73
2018-09-15T10:12:32.994Z,63.14
2018-09-15T10:13:32.983Z,62.40
2018-09-15T10:14:32.977Z,60.75
2018-09-15T10:15:32.965Z,61.21
2018-09-15T10:16:32.954Z,60.34
2018-09-15T10:17:32.981Z,60.57
2018-09-15T10:18:32.948Z,59.47
2018-09-15T10:19:32.943Z,61.05
2018-09-15T10:20:32.932Z,57.86
2018-09-15T10:21:32.994Z,59.59
2018-09-15T10:22:32.914Z,57.86
2018-09-15T10:23:32.929Z,57.18
2018-09-15T10:24:32.907Z,59.02
2018-09-15T10:25:32.900Z,61.19
2018-09-15T10:26:32.900Z,61.77
2018-09-15T10:27:32.885Z,62.54
2018-09-15T10:28:32.900Z,62.57
2018-09-15T10:29:32.875Z,61.15
2018-09-15T10:30:32.864Z,62.41
2018-09-15T10:31:32.852Z,64.76
2018-09-15T10:32:32.877Z,66.01
2018-09-15T10:33:32.887Z,66.24
2018-09-15T10:34:32.841Z,66.30
2018-09-15T10:35:32.849Z,66.14
2018-09-15T10:36:32.838Z,68.04
2018-09-15T10:37:32.818Z,69.38
2018-09-15T10:38:32.868Z,66.66
2018-09-15T10:39:32.829Z,66.78
2018-09-15T10:40:32.838Z,68.61
2018-09-15T10:41:32.774Z,69.48
2018-09-15T10:42:32.783Z,69.06
2018-09-15T10:43:32.757Z,69.48
2018-09-15T10:44:32.765Z,68.23
2018-09-15T10:45:32.738Z,68.10
2018-09-15T10:46:32.748Z,64.08
2018-09-15T10:47:32.724Z,65.34
2018-09-15T10:48:32.721Z,64.72
2018-09-15T10:49:32.722Z,62.37
2018-09-15T10:50:32.694Z,59.47
2018-09-15T10:51:32.685Z,59.38
2018-09-15T10:52:32.675Z,59.59
2018-09-15T10:53:32.696Z,57.23
2018-09-15T10:54:32.661Z,55.11
2018-09-15T10:55:32.652Z,55.82
2018-09-15T10:56:32.642Z,56.88
2018-09-15T10:57:32.636Z,57.40
2018-09-15T10:58:32.622Z,55.05
2018-09-15T10:59:32.636Z,55.41
2018-09-15T11:00:32.678Z,56.47
2018-09-15T11:01:32.611Z,57.31
2018-09-15T11:02:32.602Z,56.51
2018-09-15T11:03:32.591Z,57.51
2018-09-15T11:04:32.602Z,57.57
2018-09-15T11:05:32.594Z,57.12
2018-09-15T11:06:32.568Z,57.34
2018-09-15T11:07:32.563Z,57.28
2018-09-15T11:08:32.556Z,55.34
2018-09-15T11:09:32.543Z,55.41
2018-09-15T11:10:32.562Z,57.09
2018-09-15T11:11:32.572Z,57.12
2018-09-15T11:12:32.530Z,57.12
2018-09-15T11:13:32.546Z,57.34
2018-09-15T11:14:32.521Z,57.08
2018-09-15T11:15:32.523Z,55.43
2018-09-15T11:16:32.504Z,54.66
2018-09-15T11:17:32.508Z,56.57
2018-09-15T11:18:32.483Z,57.89
2018-09-15T11:19:32.483Z,58.54
2018-09-15T11:20:32.480Z,59.06
2018-09-15T11:21:32.488Z,61.16
2018-09-15T11:22:32.529Z,61.25
2018-09-15T11:23:32.451Z,61.51
2018-09-15T11:24:32.445Z,61.93
2018-09-15T11:25:32.439Z,62.28
2018-09-15T11:26:32.428Z,63.24
2018-09-15T11:27:32.505Z,64.08
2018-09-15T11:28:32.455Z,61.12
2018-09-15T11:29:32.406Z,59.22
2018-09-15T11:30:32.397Z,57.96
2018-09-15T11:31:32.407Z,57.79
2018-09-15T11:32:32.411Z,55.67
2018-09-15T11:33:32.378Z,56.28
2018-09-15T11:34:32.368Z,56.34
2018-09-15T11:35:32.359Z,54.30
2018-09-15T11:36:32.351Z,53.11
2018-09-15T11:37:32.365Z,53.69
2018-09-15T11:38:32.353Z,55.15
2018-09-15T11:39:32.333Z,54.80
2018-09-15T11:40:32.321Z,56.95
2018-09-15T11:41:32.321Z,54.47
2018-09-15T11:42:32.328Z,55.85
2018-09-15T11:43:32.360Z,54.69
2018-09-15T11:44:32.323Z,53.43
2018-09-15T11:45:32.295Z,54.25
2018-09-15T11:46:32.291Z,55.89
2018-09-15T11:47:32.275Z,55.83
2018-09-15T11:48:32.275Z,56.87
2018-09-15T11:49:32.281Z,57.42
2018-09-15T11:50:32.253Z,58.39
2018-09-15T11:51:32.255Z,59.35
2018-09-15T11:52:32.243Z,57.84
2018-09-15T11:53:32.230Z,57.54
2018-09-15T11:54:32.246Z,58.15
2018-09-15T11:55:32.221Z,56.73
2018-09-15T11:56:32.211Z,56.35
2018-09-15T11:57:32.208Z,56.05
2018-09-15T11:58:32.214Z,57.44
2018-09-15T11:59:32.192Z,56.21
2018-09-15T12:00:32.185Z,54.30
2018-09-15T12:01:32.183Z,55.34
2018-09-15T12:02:32.192Z,55.79
2018-09-15T12:03:32.166Z,56.99
2018-09-15T12:04:32.162Z,56.45
2018-09-15T12:05:32.186Z,55.99
2018-09-15T12:06:32.140Z,54.93
2018-09-15T12:07:32.140Z,56.50
2018-09-15T12:08:32.128Z,55.07
2018-09-15T12:09:32.128Z,54.62
2018-09-15T12:10:32.115Z,52.90
2018-09-15T12:11:32.121Z,53.80
2018-09-15T12:12:32.102Z,51.06
2018-09-15T12:13:32.093Z,50.94
2018-09-15T12:14:32.093Z,52.34
2018-09-15T12:15:32.082Z,52.17
2018-09-15T12:16:32.096Z,53.81
2018-09-15T12:17:32.075Z,52.41
2018-09-15T12:18:32.073Z,54.25
2018-09-15T12:19:32.081Z,56.40
2018-09-15T12:20:32.053Z,54.57
2018-09-15T12:21:32.071Z,54.53
2018-09-15T12:22:32.051Z,54.97
2018-09-15T12:23:32.037Z,56.65
2018-09-15T12:24:32.032Z,57.64
2018-09-15T12:25:32.017Z,58.73
2018-09-15T12:26:32.014Z,58.54
2018-09-15T12:27:32.114Z,56.61
2018-09-15T12:28:31.999Z,57.96
2018-09-15T12:29:31.989Z,56.99
2018-09-15T12:30:31.979Z,56.15
2018-09-15T12:31:31.995Z,54.63
2018-09-15T12:32:31.966Z,54.63
2018-09-15T12:33:31.979Z,56.82
2018-09-15T12:34:31.950Z,54.23
2018-09-15T12:35:31.937Z,52.20
2018-09-15T12:36:31.935Z,50.94
2018-09-15T12:37:31.945Z,51.04
2018-09-15T12:38:31.918Z,51.32
2018-09-15T12:39:32.021Z,51.88
2018-09-15T12:40:31.909Z,52.27
2018-09-15T12:41:31.904Z,53.11
2018-09-15T12:42:31.938Z,52.65
2018-09-15T12:43:31.886Z,53.97
2018-09-15T12:44:31.923Z,55.71
2018-09-15T12:45:31.867Z,56.22
2018-09-15T12:46:31.864Z,55.87
2018-09-15T12:47:31.854Z,54.27
2018-09-15T12:48:31.849Z,53.72
2018-09-15T12:49:31.843Z,50.24
2018-09-15T12:50:31.851Z,51.30
2018-09-15T12:51:31.826Z,52.14
2018-09-15T12:52:31.837Z,52.24